Time;durP1;ratioP1;P1;durP2;ratioP2;P2;SDS_P1;SDS_P2;PMS_P1;PMS_P2;Temp;Humidity;BMP_temperature;BMP_pressure;BME280_temperature;BME280_humidity;BME280_pressure;Samples;Min_cycle;Max_cycle;Signal;HPM_P1;HPM_P2
2023/11/28 00:02:23;;;;;;;3.17;1.80;;;;;;;1.40;100.00;95056.47;5001922;28;20412;-80
2023/11/28 00:04:50;;;;;;;3.10;1.70;;;;;;;1.40;100.00;95046.03;4987370;28;20400;-80
2023/11/28 00:07:16;;;;;;;2.92;1.65;;;;;;;1.40;100.00;95046.03;4991861;28;20435;-81
2023/11/28 00:09:45;;;;;;;3.15;1.70;;;;;;;1.41;100.00;95036.41;4986222;28;20412;-82
2023/11/28 00:12:11;;;;;;;2.27;1.80;;;;;;;1.42;100.00;95035.38;4986735;28;20525;-81
2023/11/28 00:14:37;;;;;;;3.67;1.83;;;;;;;1.41;100.00;95034.59;4986596;28;20408;-81
2023/11/28 00:17:03;;;;;;;2.05;1.85;;;;;;;1.44;100.00;95038.50;4987917;28;20400;-81
2023/11/28 00:19:30;;;;;;;2.00;1.70;;;;;;;1.43;100.00;95023.88;4990104;28;20428;-80
2023/11/28 00:21:56;;;;;;;2.67;1.90;;;;;;;1.45;100.00;95020.00;4995149;28;20456;-82
2023/11/28 00:24:22;;;;;;;1.85;1.75;;;;;;;1.47;100.00;95022.38;4992973;28;20404;-82
2023/11/28 00:26:49;;;;;;;2.10;1.70;;;;;;;1.50;100.00;95022.63;4988763;28;20928;-82
2023/11/28 00:29:16;;;;;;;2.35;1.90;;;;;;;1.51;100.00;95015.59;4988774;28;20435;-81
2023/11/28 00:31:42;;;;;;;2.00;1.90;;;;;;;1.52;100.00;95010.13;4986324;28;20438;-80
2023/11/28 00:34:08;;;;;;;2.55;1.88;;;;;;;1.54;100.00;95018.50;4985605;28;20423;-79
2023/11/28 00:36:34;;;;;;;2.28;1.80;;;;;;;1.56;100.00;95005.22;4985580;28;20400;-80
2023/11/28 00:39:00;;;;;;;2.78;1.80;;;;;;;1.58;100.00;95004.97;4985624;28;20416;-82
2023/11/28 00:41:27;;;;;;;2.45;2.08;;;;;;;1.57;100.00;95003.41;4986075;28;20415;-80
2023/11/28 00:43:55;;;;;;;2.20;2.00;;;;;;;1.58;100.00;95002.38;4985407;28;20480;-81
2023/11/28 00:46:22;;;;;;;2.20;2.00;;;;;;;1.61;100.00;94994.03;4986036;28;20500;-82
2023/11/28 00:48:48;;;;;;;2.67;1.88;;;;;;;1.60;100.00;95003.66;4986983;28;20505;-81
2023/11/28 00:51:14;;;;;;;1.90;1.80;;;;;;;1.62;100.00;95000.81;4987258;28;20462;-82
2023/11/28 00:53:41;;;;;;;2.78;2.03;;;;;;;1.61;100.00;94997.41;4984689;28;20401;-82
2023/11/28 00:56:09;;;;;;;2.75;1.90;;;;;;;1.62;100.00;94995.59;4985545;28;20400;-80
2023/11/28 00:58:35;;;;;;;3.83;1.90;;;;;;;1.62;100.00;94990.38;4984706;28;20511;-80
2023/11/28 01:01:03;;;;;;;2.67;1.90;;;;;;;1.63;100.00;94991.94;4984934;28;20415;-81
2023/11/28 01:03:29;;;;;;;2.20;2.00;;;;;;;1.60;100.00;94982.81;4998437;28;20402;-80
2023/11/28 01:05:55;;;;;;;2.20;2.00;;;;;;;1.59;100.00;94975.22;5004425;28;20465;-79
2023/11/28 01:08:21;;;;;;;2.55;2.10;;;;;;;1.58;100.00;94982.25;5005070;28;20429;-79
2023/11/28 01:10:49;;;;;;;2.08;1.90;;;;;;;1.59;100.00;94980.44;5003922;28;20425;-79
2023/11/28 01:13:15;;;;;;;2.28;2.05;;;;;;;1.59;100.00;94988.25;5004364;28;20509;-81
2023/11/28 01:15:41;;;;;;;3.03;2.00;;;;;;;1.59;100.00;94991.66;5004318;28;20402;-80
2023/11/28 01:18:09;;;;;;;3.25;1.90;;;;;;;1.61;100.00;94986.97;5005911;28;20914;-80
2023/11/28 01:20:35;;;;;;;2.45;2.10;;;;;;;1.59;100.00;94989.06;5009158;28;20411;-81
2023/11/28 01:23:02;;;;;;;2.03;1.88;;;;;;;1.60;100.00;94984.63;5008684;28;20411;-80
2023/11/28 01:25:28;;;;;;;2.17;1.98;;;;;;;1.60;100.00;94995.84;5008205;28;20898;-80
2023/11/28 01:27:54;;;;;;;2.80;2.13;;;;;;;1.61;100.00;94986.19;5007784;28;20556;-80
2023/11/28 01:30:20;;;;;;;2.58;1.98;;;;;;;1.62;100.00;94985.94;5007982;28;20402;-81
2023/11/28 01:32:46;;;;;;;2.38;2.00;;;;;;;1.66;100.00;94989.59;5008389;28;20399;-81
2023/11/28 01:35:14;;;;;;;2.20;1.90;;;;;;;1.69;100.00;94981.28;5008000;28;20402;-80
2023/11/28 01:37:40;;;;;;;3.00;2.10;;;;;;;1.69;100.00;94964.84;5009026;28;20426;-81
2023/11/28 01:40:07;;;;;;;2.60;2.33;;;;;;;1.71;100.00;94965.41;5007554;28;20421;-80
2023/11/28 01:42:33;;;;;;;2.35;2.10;;;;;;;1.72;100.00;94957.31;5008165;28;20399;-80
2023/11/28 01:45:00;;;;;;;2.80;2.20;;;;;;;1.78;100.00;94960.72;5008160;28;20422;-80
2023/11/28 01:47:26;;;;;;;3.90;2.08;;;;;;;1.80;100.00;94959.44;5007915;28;20433;-80
2023/11/28 01:49:53;;;;;;;2.83;2.03;;;;;;;1.81;100.00;94968.03;5007065;28;20414;-81
2023/11/28 01:52:21;;;;;;;2.35;2.15;;;;;;;1.82;100.00;94959.94;5008153;28;20425;-80
2023/11/28 01:54:48;;;;;;;2.33;2.13;;;;;;;1.83;100.00;94965.97;5008173;28;20398;-79
2023/11/28 01:57:15;;;;;;;2.40;2.00;;;;;;;1.84;100.00;94962.31;5008156;28;20406;-81
2023/11/28 01:59:43;;;;;;;2.53;2.20;;;;;;;1.82;100.00;94952.13;5007856;28;20395;-80
2023/11/28 02:02:09;;;;;;;3.17;2.30;;;;;;;1.81;100.00;94953.16;5007630;28;20423;-81
2023/11/28 02:04:36;;;;;;;2.40;2.13;;;;;;;1.84;100.00;94959.69;5007651;28;20437;-81
2023/11/28 02:07:04;;;;;;;3.00;2.30;;;;;;;1.84;100.00;94952.66;5007957;28;20391;-81
2023/11/28 02:09:32;;;;;;;2.47;2.28;;;;;;;1.85;100.00;94943.81;5007875;28;20474;-80
2023/11/28 02:11:58;;;;;;;4.05;2.42;;;;;;;1.86;100.00;94939.38;5007895;28;20459;-80
2023/11/28 02:14:24;;;;;;;3.33;2.40;;;;;;;1.88;100.00;94943.28;4990879;28;20420;-80
2023/11/28 02:16:50;;;;;;;2.47;2.20;;;;;;;1.90;100.00;94946.41;5007637;28;20403;-81
2023/11/28 02:19:16;;;;;;;2.28;2.00;;;;;;;1.94;100.00;94931.06;5007943;28;20453;-81
2023/11/28 02:21:43;;;;;;;2.50;2.20;;;;;;;1.95;100.00;94935.22;5007204;28;20413;-81
2023/11/28 02:24:13;;;;;;;3.00;2.22;;;;;;;1.99;100.00;94936.28;5007091;28;20398;-80
2023/11/28 02:26:40;;;;;;;3.15;2.10;;;;;;;2.02;100.00;94935.78;5007484;28;20518;-82
2023/11/28 02:29:06;;;;;;;2.20;2.00;;;;;;;2.06;100.00;94933.41;5007399;28;20767;-81
2023/11/28 02:31:33;;;;;;;2.42;2.22;;;;;;;2.06;100.00;94939.44;5007708;28;20433;-80
2023/11/28 02:33:59;;;;;;;2.30;1.90;;;;;;;2.11;100.00;94933.41;5007803;28;20409;-80
2023/11/28 02:36:25;;;;;;;4.55;2.30;;;;;;;2.11;100.00;94936.03;5007611;28;20498;-81
2023/11/28 02:38:52;;;;;;;3.50;2.17;;;;;;;2.13;100.00;94928.75;5008423;28;20424;-80
2023/11/28 02:41:18;;;;;;;4.80;2.40;;;;;;;2.12;100.00;94935.00;5007647;28;20406;-80
2023/11/28 02:43:46;;;;;;;3.30;2.45;;;;;;;2.12;100.00;94933.16;5006692;28;20430;-81
2023/11/28 02:46:12;;;;;;;2.80;2.17;;;;;;;2.14;100.00;94925.09;5010799;28;20489;-80
2023/11/28 02:48:40;;;;;;;2.47;2.28;;;;;;;2.14;100.00;94917.25;5008138;28;20923;-80
2023/11/28 02:51:08;;;;;;;2.65;2.25;;;;;;;2.16;100.00;94915.19;5006152;28;20412;-81
2023/11/28 02:53:34;;;;;;;3.90;2.58;;;;;;;2.16;100.00;94909.97;5005970;28;20500;-81
2023/11/28 02:56:00;;;;;;;3.10;2.50;;;;;;;2.16;100.00;94915.97;5007195;28;20399;-81
2023/11/28 02:58:27;;;;;;;3.60;2.28;;;;;;;2.18;100.00;94915.72;5005963;28;20434;-80
2023/11/28 03:00:54;;;;;;;2.50;2.30;;;;;;;2.19;100.00;94918.03;5006630;28;20784;-80
2023/11/28 03:03:20;;;;;;;3.10;2.47;;;;;;;2.21;100.00;94912.56;5006252;28;20406;-80
2023/11/28 03:05:46;;;;;;;2.83;2.45;;;;;;;2.22;100.00;94908.94;5006555;28;20457;-80
2023/11/28 03:08:13;;;;;;;3.42;2.75;;;;;;;2.21;100.00;94902.94;5006544;28;20413;-80
2023/11/28 03:10:39;;;;;;;3.83;2.80;;;;;;;2.23;100.00;94911.28;4988729;28;20521;-81
2023/11/28 03:13:05;;;;;;;2.72;2.47;;;;;;;2.26;100.00;94904.75;5006222;28;20398;-80
2023/11/28 03:15:31;;;;;;;4.22;2.80;;;;;;;2.25;100.00;94906.59;5006530;28;20409;-81
2023/11/28 03:17:59;;;;;;;3.88;2.78;;;;;;;2.27;100.00;94901.88;5006215;28;20513;-80
2023/11/28 03:20:25;;;;;;;3.72;2.50;;;;;;;2.28;100.00;94898.22;5005895;28;20448;-80
2023/11/28 03:22:52;;;;;;;5.32;2.63;;;;;;;2.30;100.00;94897.97;4988994;28;20428;-80
2023/11/28 03:25:18;;;;;;;3.45;2.38;;;;;;;2.32;100.00;94894.06;5006693;28;20422;-80
2023/11/28 03:27:45;;;;;;;8.68;2.72;;;;;;;2.32;100.00;94901.91;5006272;28;20406;-81
2023/11/28 03:30:12;;;;;;;7.28;2.60;;;;;;;2.32;100.00;94901.91;5007207;28;20416;-81
2023/11/28 03:32:38;;;;;;;4.53;2.47;;;;;;;2.32;100.00;94896.69;5011411;28;20406;-80
2023/11/28 03:35:06;;;;;;;3.20;2.47;;;;;;;2.33;100.00;94897.47;5010854;28;20398;-80
2023/11/28 03:37:32;;;;;;;4.60;2.30;;;;;;;2.31;100.00;94897.72;5007295;28;20456;-80
2023/11/28 03:39:58;;;;;;;4.72;2.28;;;;;;;2.33;100.00;94897.47;5006087;28;20402;-81
2023/11/28 03:42:24;;;;;;;3.30;2.35;;;;;;;2.32;100.00;94898.50;5005487;28;20469;-80
2023/11/28 03:44:51;;;;;;;4.33;2.33;;;;;;;2.31;100.00;94891.72;5006829;28;20425;-80
2023/11/28 03:47:17;;;;;;;2.53;2.10;;;;;;;2.32;100.00;94891.47;5006245;28;20771;-81
2023/11/28 03:49:43;;;;;;;2.40;2.20;;;;;;;2.31;100.00;94883.88;5006770;28;20413;-81
2023/11/28 03:52:10;;;;;;;2.95;2.13;;;;;;;2.31;100.00;94889.91;5009517;28;20399;-80
2023/11/28 03:54:36;;;;;;;2.50;2.13;;;;;;;2.30;100.00;94888.31;5005351;28;20402;-80
2023/11/28 03:57:03;;;;;;;3.20;2.35;;;;;;;2.29;100.00;94881.53;5006047;28;20398;-80
2023/11/28 03:59:29;;;;;;;2.40;2.00;;;;;;;2.29;100.00;94886.75;5005208;28;20417;-80
2023/11/28 04:01:55;;;;;;;2.28;2.00;;;;;;;2.29;100.00;94884.16;5005695;28;20407;-81
2023/11/28 04:04:21;;;;;;;1.88;1.77;;;;;;;2.28;100.00;94879.19;5005807;28;20399;-81
2023/11/28 04:06:47;;;;;;;2.13;1.88;;;;;;;2.26;100.00;94884.66;5003634;28;20426;-81
2023/11/28 04:09:15;;;;;;;1.98;1.80;;;;;;;2.27;100.00;94888.03;5001912;28;20429;-81
2023/11/28 04:11:41;;;;;;;1.80;1.70;;;;;;;2.28;100.00;94884.41;5001684;28;20434;-82
2023/11/28 04:14:07;;;;;;;1.85;1.60;;;;;;;2.26;100.00;94884.66;5001551;28;20405;-81
2023/11/28 04:16:33;;;;;;;3.00;1.90;;;;;;;2.28;100.00;94884.41;5001838;28;20438;-81
2023/11/28 04:19:00;;;;;;;2.50;1.70;;;;;;;2.30;100.00;94884.94;4983696;28;20477;-81
2023/11/28 04:21:26;;;;;;;1.90;1.80;;;;;;;2.29;100.00;94884.16;5001453;28;20489;-80
2023/11/28 04:23:52;;;;;;;1.90;1.70;;;;;;;2.31;100.00;94884.66;5000267;28;20414;-81
2023/11/28 04:26:20;;;;;;;2.28;1.70;;;;;;;2.31;100.00;94878.66;5001163;28;20398;-81
2023/11/28 04:28:46;;;;;;;2.38;1.70;;;;;;;2.33;100.00;94887.03;5001135;28;20417;-81
2023/11/28 04:31:19;;;;;;;1.77;1.67;;;;;;;2.33;100.00;94893.00;5001322;28;20399;-80
2023/11/28 04:33:46;;;;;;;2.85;1.65;;;;;;;2.34;100.00;94893.78;5001576;28;20485;-82
2023/11/28 04:36:15;;;;;;;3.38;1.70;;;;;;;2.33;100.00;94898.22;5000549;28;20405;-80
2023/11/28 04:38:42;;;;;;;5.68;2.10;;;;;;;2.33;100.00;94900.09;5001027;28;20521;-81
2023/11/28 04:41:10;;;;;;;2.60;1.70;;;;;;;2.34;100.00;94905.03;5001098;28;20448;-80
2023/11/28 04:43:38;;;;;;;2.30;1.60;;;;;;;2.34;100.00;94914.66;5001567;28;20467;-80
2023/11/28 04:46:05;;;;;;;1.70;1.60;;;;;;;2.34;100.00;94914.66;5001185;28;20399;-81
2023/11/28 04:48:31;;;;;;;1.70;1.50;;;;;;;2.33;100.00;94924.31;4997491;28;20402;-81
2023/11/28 04:50:58;;;;;;;1.60;1.50;;;;;;;2.34;100.00;94931.13;4996986;28;20446;-81
2023/11/28 04:53:24;;;;;;;1.40;1.30;;;;;;;2.33;100.00;94932.16;5009224;28;20392;-81
2023/11/28 04:55:50;;;;;;;1.42;1.33;;;;;;;2.36;100.00;94935.31;5020245;28;20397;-82
2023/11/28 04:58:16;;;;;;;1.63;1.50;;;;;;;2.34;100.00;94941.56;5020150;28;20459;-81
2023/11/28 05:00:44;;;;;;;1.37;1.27;;;;;;;2.37;100.00;94944.72;5003049;28;20398;-81
2023/11/28 05:03:11;;;;;;;1.88;1.40;;;;;;;2.38;100.00;94933.22;5000676;28;20407;-82
2023/11/28 05:05:37;;;;;;;1.92;1.60;;;;;;;2.38;100.00;94935.84;5001788;28;20402;-82
2023/11/28 05:08:04;;;;;;;1.70;1.40;;;;;;;2.41;100.00;94940.53;5002679;28;20413;-81
2023/11/28 05:10:30;;;;;;;1.70;1.50;;;;;;;2.43;100.00;94941.06;5005947;28;20502;-81
2023/11/28 05:12:57;;;;;;;1.60;1.50;;;;;;;2.43;100.00;94944.44;5002290;28;20398;-81
2023/11/28 05:15:23;;;;;;;2.25;1.52;;;;;;;2.45;100.00;94942.38;5001021;28;21044;-80
2023/11/28 05:17:51;;;;;;;1.60;1.50;;;;;;;2.46;100.00;94949.16;5002467;28;20794;-80
2023/11/28 05:20:18;;;;;;;2.92;1.80;;;;;;;2.48;100.00;94951.53;5002782;28;20441;-81
2023/11/28 05:22:44;;;;;;;2.20;2.00;;;;;;;2.50;100.00;94965.09;5000901;28;20447;-81
2023/11/28 05:25:10;;;;;;;2.20;2.00;;;;;;;2.51;100.00;94971.88;5000287;28;20485;-81
2023/11/28 05:27:37;;;;;;;4.72;3.25;;;;;;;2.52;100.00;94979.47;5000732;28;20946;-82
2023/11/28 05:30:03;;;;;;;6.00;4.20;;;;;;;2.54;100.00;94971.38;5000427;28;20412;-80
2023/11/28 05:32:29;;;;;;;7.13;4.43;;;;;;;2.54;100.00;94972.16;5000945;28;20432;-81
2023/11/28 05:34:58;;;;;;;7.07;5.03;;;;;;;2.53;100.00;94986.25;5002098;28;20439;-81
2023/11/28 05:37:24;;;;;;;6.32;4.70;;;;;;;2.51;100.00;94987.53;5000304;28;20402;-81
2023/11/28 05:39:50;;;;;;;6.53;4.47;;;;;;;2.50;100.00;94994.59;5000365;28;20437;-81
2023/11/28 05:42:17;;;;;;;8.30;5.10;;;;;;;2.50;100.00;94996.41;5002845;28;20501;-81
2023/11/28 05:44:43;;;;;;;8.65;5.30;;;;;;;2.49;100.00;94989.63;5001884;28;20414;-81
2023/11/28 05:47:09;;;;;;;7.43;5.13;;;;;;;2.48;100.00;94998.53;5001801;28;20395;-80
2023/11/28 05:49:36;;;;;;;11.13;6.33;;;;;;;2.46;100.00;94998.78;5000579;28;20444;-83
2023/11/28 05:52:03;;;;;;;9.32;5.97;;;;;;;2.46;100.00;95006.59;4998876;28;20410;-80
2023/11/28 05:54:30;;;;;;;11.17;6.40;;;;;;;2.44;100.00;95018.34;4996590;28;20735;-82
2023/11/28 05:56:56;;;;;;;10.05;6.13;;;;;;;2.41;100.00;95019.63;5002893;28;20411;-82
2023/11/28 05:59:22;;;;;;;10.50;6.20;;;;;;;2.39;100.00;95024.34;5002284;28;20425;-82
2023/11/28 06:01:59;;;;;;;8.23;5.80;;;;;;;2.39;100.00;95041.81;5004692;28;20417;-82
2023/11/28 06:04:25;;;;;;;8.18;5.40;;;;;;;2.38;100.00;95045.47;5018156;28;20469;-81
2023/11/28 06:06:52;;;;;;;11.70;6.53;;;;;;;2.35;100.00;95041.53;5025630;28;20491;-81
2023/11/28 06:09:19;;;;;;;11.95;6.85;;;;;;;2.32;100.00;95055.13;5021490;28;20877;-80
2023/11/28 06:11:46;;;;;;;13.18;7.20;;;;;;;2.29;100.00;95064.25;5025082;28;20431;-80
2023/11/28 06:14:12;;;;;;;13.13;7.20;;;;;;;2.26;100.00;95062.13;5024051;28;20885;-81
2023/11/28 06:16:38;;;;;;;14.15;7.68;;;;;;;2.22;100.00;95068.13;5018158;28;20406;-82
2023/11/28 06:19:05;;;;;;;14.57;7.63;;;;;;;2.20;100.00;95072.81;5003278;28;20438;-82
2023/11/28 06:21:31;;;;;;;13.25;7.05;;;;;;;2.18;100.00;95080.13;5004632;28;20413;-82
2023/11/28 06:23:57;;;;;;;13.90;7.07;;;;;;;2.17;100.00;95070.72;5003885;28;20768;-82
2023/11/28 06:26:24;;;;;;;14.38;7.38;;;;;;;2.16;100.00;95090.03;5003405;28;20405;-81
2023/11/28 06:28:50;;;;;;;14.43;7.00;;;;;;;2.15;100.00;95085.84;5000315;28;20439;-81
2023/11/28 06:31:17;;;;;;;14.82;7.38;;;;;;;2.13;100.00;95080.09;5000828;28;20452;-82
2023/11/28 06:33:43;;;;;;;18.38;8.40;;;;;;;2.10;100.00;95098.88;5000799;28;20446;-81
2023/11/28 06:36:10;;;;;;;17.50;8.23;;;;;;;2.08;100.00;95091.28;5003745;28;20398;-83
2023/11/28 06:38:36;;;;;;;17.60;9.07;;;;;;;2.07;100.00;95105.38;5005914;28;20823;-82
2023/11/28 06:41:02;;;;;;;16.23;8.77;;;;;;;2.05;100.00;95124.91;5001680;28;20454;-82
2023/11/28 06:43:30;;;;;;;15.80;8.33;;;;;;;2.04;100.00;95123.34;5005841;28;20399;-81
2023/11/28 06:46:00;;;;;;;15.43;7.90;;;;;;;2.03;100.00;95137.47;5005980;28;20418;-79
2023/11/28 06:48:27;;;;;;;15.13;7.53;;;;;;;2.03;100.00;95158.31;5000057;28;20554;-81
2023/11/28 06:50:53;;;;;;;11.77;6.60;;;;;;;1.99;100.00;95173.69;4999489;28;20441;-81
2023/11/28 06:53:19;;;;;;;13.35;5.65;;;;;;;1.92;100.00;95191.38;4999875;28;20409;-82
2023/11/28 06:55:46;;;;;;;7.05;4.65;;;;;;;1.82;100.00;95191.28;5000491;28;20417;-82
2023/11/28 06:58:12;;;;;;;6.78;4.32;;;;;;;1.72;100.00;95204.28;4999287;28;20429;-82
2023/11/28 07:00:39;;;;;;;8.77;5.68;;;;;;;1.62;100.00;95204.19;5000003;28;20494;-81
2023/11/28 07:03:06;;;;;;;9.30;6.32;;;;;;;1.48;100.00;95207.19;4999953;28;20879;-81
2023/11/28 07:05:32;;;;;;;11.67;7.00;;;;;;;1.37;100.00;95212.53;4998248;28;20426;-81
2023/11/28 07:07:58;;;;;;;10.60;7.15;;;;;;;1.31;100.00;95219.53;4999266;28;20402;-81
2023/11/28 07:10:24;;;;;;;9.77;6.55;;;;;;;1.23;100.00;95224.41;4999124;28;20437;-81
2023/11/28 07:12:51;;;;;;;11.18;7.20;;;;;;;1.16;100.00;95235.81;4999013;28;20399;-81
2023/11/28 07:15:17;;;;;;;10.57;7.13;;;;;;;1.14;100.00;95237.84;4998934;28;20509;-82
2023/11/28 07:17:44;;;;;;;13.97;8.37;;;;;;;1.08;100.00;95245.88;5000145;28;20457;-82
2023/11/28 07:20:11;;;;;;;11.07;7.17;;;;;;;1.01;100.00;95261.69;4998513;28;20505;-82
2023/11/28 07:22:38;;;;;;;16.13;9.25;;;;;;;0.98;100.00;95256.94;4991530;28;20427;-82
2023/11/28 07:25:04;;;;;;;14.05;8.85;;;;;;;0.92;100.00;95259.75;4980696;28;20908;-82
2023/11/28 07:27:30;;;;;;;14.70;8.45;;;;;;;0.93;100.00;95275.13;4984653;28;20452;-83
2023/11/28 07:29:57;;;;;;;14.60;8.00;;;;;;;0.91;100.00;95287.59;4999028;28;20399;-80
2023/11/28 07:32:23;;;;;;;14.10;8.63;;;;;;;0.94;100.00;95283.72;4999395;28;20398;-81
2023/11/28 07:34:51;;;;;;;14.02;8.70;;;;;;;0.87;100.00;95291.72;4986421;28;20470;-80
2023/11/28 07:37:17;;;;;;;14.25;8.68;;;;;;;0.84;100.00;95300.00;4998287;28;20402;-80
2023/11/28 07:39:43;;;;;;;16.35;9.10;;;;;;;0.85;100.00;95309.41;5000247;28;20937;-81
2023/11/28 07:42:09;;;;;;;17.35;9.95;;;;;;;0.85;100.00;95317.22;4997192;28;20886;-80
2023/11/28 07:44:36;;;;;;;19.02;11.18;;;;;;;0.82;100.00;95320.31;4999132;28;20399;-81
2023/11/28 07:47:02;;;;;;;17.63;11.33;;;;;;;0.78;100.00;95342.66;4998218;28;20414;-80
2023/11/28 07:49:28;;;;;;;20.58;11.73;;;;;;;0.75;100.00;95350.94;4997987;28;20406;-80
2023/11/28 07:51:55;;;;;;;18.80;11.02;;;;;;;0.71;100.00;95345.41;4998565;28;20417;-79
2023/11/28 07:54:22;;;;;;;21.25;11.55;;;;;;;0.73;100.00;95366.00;4997890;28;20697;-81
2023/11/28 07:56:48;;;;;;;19.13;11.18;;;;;;;0.73;100.00;95379.81;4998597;28;20891;-80
2023/11/28 07:59:14;;;;;;;24.20;12.75;;;;;;;0.74;100.00;95368.38;5002397;28;20815;-80
2023/11/28 08:01:40;;;;;;;21.60;12.73;;;;;;;0.72;100.00;95386.06;4998685;28;20896;-81
2023/11/28 08:04:07;;;;;;;22.80;13.95;;;;;;;0.66;100.00;95374.00;4997705;28;20826;-82
2023/11/28 08:06:34;;;;;;;25.70;15.32;;;;;;;0.63;100.00;95377.06;5003904;28;20407;-81
2023/11/28 08:09:01;;;;;;;25.25;14.70;;;;;;;0.61;100.00;95388.72;5006895;28;20404;-81
2023/11/28 08:11:28;;;;;;;30.67;15.95;;;;;;;0.59;100.00;95396.00;5006592;28;20814;-80
2023/11/28 08:13:54;;;;;;;28.55;15.10;;;;;;;0.54;100.00;95407.09;5004283;28;20398;-80
2023/11/28 08:16:23;;;;;;;31.75;16.45;;;;;;;0.54;100.00;95408.91;5007502;28;20463;-82
2023/11/28 08:18:49;;;;;;;30.58;15.95;;;;;;;0.52;100.00;95417.00;5004492;28;20455;-81
2023/11/28 08:21:15;;;;;;;29.30;15.40;;;;;;;0.51;100.00;95422.44;5004905;28;20411;-80
2023/11/28 08:23:42;;;;;;;25.93;14.90;;;;;;;0.53;100.00;95438.56;5004717;28;20421;-80
2023/11/28 08:26:10;;;;;;;33.80;18.13;;;;;;;0.52;100.00;95445.63;5007669;28;20814;-80
2023/11/28 08:28:37;;;;;;;34.72;17.50;;;;;;;0.47;100.00;95455.94;5007299;28;20404;-81
2023/11/28 08:31:03;;;;;;;31.63;17.53;;;;;;;0.48;100.00;95462.72;5002650;28;20900;-81
2023/11/28 08:33:29;;;;;;;32.40;17.10;;;;;;;0.46;100.00;95474.38;5002560;28;20404;-81
2023/11/28 08:35:55;;;;;;;34.22;17.33;;;;;;;0.43;100.00;95475.66;5009148;28;20447;-80
2023/11/28 08:38:21;;;;;;;30.67;16.58;;;;;;;0.41;100.00;95476.91;5004463;28;20513;-80
2023/11/28 08:40:48;;;;;;;26.33;14.60;;;;;;;0.42;100.00;95481.09;5008793;28;20409;-80
2023/11/28 08:43:15;;;;;;;28.38;15.23;;;;;;;0.46;100.00;95482.97;5008969;28;20478;-80
2023/11/28 08:45:42;;;;;;;23.40;13.53;;;;;;;0.49;100.00;95498.13;5012793;28;20485;-81
2023/11/28 08:48:08;;;;;;;26.77;14.73;;;;;;;0.50;100.00;95498.94;5007793;28;20430;-80
2023/11/28 08:50:35;;;;;;;25.30;14.48;;;;;;;0.51;100.00;95506.50;5001796;28;20426;-82
2023/11/28 08:53:02;;;;;;;23.17;13.05;;;;;;;0.52;100.00;95509.91;5004111;28;20398;-82
2023/11/28 08:55:29;;;;;;;28.50;13.73;;;;;;;0.52;100.00;95515.91;5003913;28;20973;-80
2023/11/28 08:57:56;;;;;;;22.83;13.77;;;;;;;0.51;100.00;95518.72;5004551;28;20477;-81
2023/11/28 09:00:23;;;;;;;21.52;12.07;;;;;;;0.50;100.00;95535.38;5008648;28;20421;-81
2023/11/28 09:02:51;;;;;;;22.80;12.90;;;;;;;0.47;100.00;95547.03;4995735;28;20412;-81
2023/11/28 09:05:17;;;;;;;18.70;11.15;;;;;;;0.46;100.00;95557.66;4995128;28;20486;-80
2023/11/28 09:07:44;;;;;;;21.35;12.70;;;;;;;0.44;100.00;95563.13;4992676;28;20444;-80
2023/11/28 09:10:12;;;;;;;20.87;12.17;;;;;;;0.39;100.00;95563.81;5000014;28;20442;-81
2023/11/28 09:12:38;;;;;;;18.90;11.82;;;;;;;0.35;100.00;95569.72;4993986;28;20407;-82
2023/11/28 09:15:05;;;;;;;16.17;10.50;;;;;;;0.33;100.00;95574.34;5003194;28;20406;-81
2023/11/28 09:17:32;;;;;;;18.75;12.15;;;;;;;0.28;100.00;95587.28;4998868;28;20423;-80
2023/11/28 09:19:58;;;;;;;21.10;12.90;;;;;;;0.28;100.00;95598.47;4999463;28;20929;-81
2023/11/28 09:22:25;;;;;;;17.95;11.98;;;;;;;0.27;100.00;95601.28;5005665;28;20420;-82
2023/11/28 09:24:51;;;;;;;24.23;14.18;;;;;;;0.26;100.00;95600.50;5002413;28;20434;-81
2023/11/28 09:27:17;;;;;;;22.25;13.68;;;;;;;0.25;100.00;95617.13;5007092;28;20440;-82
2023/11/28 09:29:43;;;;;;;23.13;13.43;;;;;;;0.23;100.00;95611.34;4999826;28;20434;-82
2023/11/28 09:32:10;;;;;;;24.90;14.23;;;;;;;0.23;100.00;95615.78;5004930;28;20395;-81
2023/11/28 09:34:37;;;;;;;23.77;13.10;;;;;;;0.24;100.00;95614.75;5000019;28;20402;-82
2023/11/28 09:37:04;;;;;;;26.00;14.50;;;;;;;0.24;100.00;95622.56;5004573;28;20402;-80
2023/11/28 09:39:30;;;;;;;26.52;13.60;;;;;;;0.25;100.00;95622.34;5003045;28;20449;-83
2023/11/28 09:42:02;;;;;;;27.23;15.00;;;;;;;0.24;100.00;95636.34;5003809;28;20924;-81
2023/11/28 09:44:33;;;;;;;25.13;13.60;;;;;;;0.20;100.00;95622.25;5000091;28;20400;-82
2023/11/28 09:47:06;;;;;;;24.77;13.23;;;;;;;0.19;100.00;95644.06;4999843;28;20482;-81
2023/11/28 09:49:38;;;;;;;21.73;12.70;;;;;;;0.21;100.00;95638.66;4994850;28;20403;-82
2023/11/28 09:52:07;;;;;;;23.05;13.23;;;;;;;0.23;100.00;95653.00;5000080;28;20426;-82
2023/11/28 09:54:34;;;;;;;23.15;12.90;;;;;;;0.27;100.00;95653.34;4982551;28;20408;-81
2023/11/28 09:57:01;;;;;;;23.90;13.57;;;;;;;0.27;100.00;95668.94;5003865;28;20399;-80
2023/11/28 09:59:30;;;;;;;22.40;13.37;;;;;;;0.25;100.00;95674.38;5006164;28;20519;-81
2023/11/28 10:02:00;;;;;;;30.95;15.88;;;;;;;0.22;100.00;95674.84;4998619;28;20435;-82
2023/11/28 10:04:26;;;;;;;30.23;17.02;;;;;;;0.18;100.00;95684.13;4998516;28;20481;-80
2023/11/28 10:06:53;;;;;;;25.70;14.75;;;;;;;0.16;100.00;95682.75;4996625;28;20410;-82
2023/11/28 10:09:21;;;;;;;26.13;14.57;;;;;;;0.20;100.00;95696.91;5001012;28;20536;-79
2023/11/28 10:11:51;;;;;;;31.50;16.65;;;;;;;0.19;100.00;95695.31;5004460;28;20417;-81
2023/11/28 10:14:17;;;;;;;25.83;14.68;;;;;;;0.21;100.00;95707.09;5005184;28;20473;-82
2023/11/28 10:16:44;;;;;;;26.95;15.48;;;;;;;0.24;100.00;95698.81;5009157;28;20436;-84
2023/11/28 10:19:10;;;;;;;24.75;14.13;;;;;;;0.27;100.00;95707.97;5002562;28;20442;-82
2023/11/28 10:21:38;;;;;;;32.65;16.08;;;;;;;0.31;100.00;95717.69;4999622;28;20410;-83
2023/11/28 10:24:07;;;;;;;25.48;14.95;;;;;;;0.31;100.00;95722.91;5000589;28;20406;-82
2023/11/28 10:26:34;;;;;;;23.70;13.95;;;;;;;0.31;100.00;95722.91;4995253;28;20398;-84
2023/11/28 10:29:03;;;;;;;37.20;18.23;;;;;;;0.32;100.00;95715.88;5000147;28;20506;-84
2023/11/28 10:31:29;;;;;;;38.97;19.80;;;;;;;0.31;100.00;95725.50;4999121;28;20434;-82
2023/11/28 10:33:58;;;;;;;37.78;18.92;;;;;;;0.28;100.00;95730.38;4982421;28;20421;-83
2023/11/28 10:36:27;;;;;;;34.75;17.50;;;;;;;0.26;100.00;95733.22;4998617;28;20409;-82
2023/11/28 10:38:53;;;;;;;32.85;17.13;;;;;;;0.25;100.00;95736.03;4997262;28;20476;-83
2023/11/28 10:41:29;;;;;;;27.27;14.93;;;;;;;0.25;100.00;95733.44;4997753;28;20794;-82
2023/11/28 10:43:58;;;;;;;28.92;15.80;;;;;;;0.24;100.00;95732.63;4996180;28;20395;-84
2023/11/28 10:46:25;;;;;;;41.42;20.33;;;;;;;0.22;100.00;95741.69;4998912;28;20471;-84
2023/11/28 10:48:52;;;;;;;32.15;17.13;;;;;;;0.19;100.00;95744.75;4998021;28;20505;-83
2023/11/28 10:51:22;;;;;;;36.20;18.77;;;;;;;0.15;100.00;95741.03;4997216;28;20410;-84
2023/11/28 10:53:52;;;;;;;41.50;20.42;;;;;;;0.13;100.00;95751.66;4998130;28;20403;-82
2023/11/28 10:56:20;;;;;;;31.50;17.35;;;;;;;0.11;100.00;95751.06;4997320;28;20704;-83
2023/11/28 10:58:47;;;;;;;39.70;20.05;;;;;;;0.13;100.00;95763.88;4997613;28;20418;-82
2023/11/28 11:01:16;;;;;;;36.47;19.48;;;;;;;0.12;100.00;95770.06;4995144;28;20770;-83
2023/11/28 11:03:45;;;;;;;34.80;18.02;;;;;;;0.12;100.00;95768.28;4998078;28;20425;-83
2023/11/28 11:06:11;;;;;;;31.23;17.57;;;;;;;0.14;100.00;95765.44;4997977;28;20402;-83
2023/11/28 11:08:40;;;;;;;28.20;15.73;;;;;;;0.17;100.00;95773.59;4997477;28;20407;-83
2023/11/28 11:11:08;;;;;;;25.30;14.50;;;;;;;0.22;100.00;95775.53;4998023;28;20402;-83
2023/11/28 11:13:45;;;;;;;32.63;15.75;;;;;;;0.23;100.00;95780.47;4998281;28;20399;-82
2023/11/28 11:16:21;;;;;;;37.55;17.35;;;;;;;0.27;100.00;95796.44;4998430;28;20399;-82
2023/11/28 11:18:52;;;;;;;38.50;17.60;;;;;;;0.22;100.00;95801.53;4999634;28;20827;-83
2023/11/28 11:21:25;;;;;;;33.97;16.73;;;;;;;0.20;100.00;95808.78;4995448;28;20421;-82
2023/11/28 11:23:55;;;;;;;44.50;20.05;;;;;;;0.16;100.00;95813.63;4998192;28;20477;-83
2023/11/28 11:26:30;;;;;;;45.80;19.77;;;;;;;0.13;100.00;95821.88;4998611;28;20883;-82